Time;durP1;ratioP1;P1;durP2;ratioP2;P2;SDS_P1;SDS_P2;PMS_P1;PMS_P2;Temp;Humidity;BMP_temperature;BMP_pressure;BME280_temperature;BME280_humidity;BME280_pressure;Samples;Min_cycle;Max_cycle;Signal;HPM_P1;HPM_P2
2022/06/06 07:59:46;;;;;;;4.22;1.80;;;;;;;15.41;70.02;101328.63;5280265;28;20383;-76
2022/06/06 08:02:32;;;;;;;4.40;2.08;;;;;;;15.35;71.68;101319.53;5279865;28;20032;-75
2022/06/06 08:05:25;;;;;;;3.00;1.95;;;;;;;15.43;71.20;101320.75;5277103;28;20037;-76
2022/06/06 08:08:05;;;;;;;3.50;1.77;;;;;;;15.56;69.84;101321.91;5251207;28;20061;-76
2022/06/06 08:10:41;;;;;;;2.58;1.60;;;;;;;15.66;69.81;101322.50;5259341;28;20469;-75
2022/06/06 08:13:32;;;;;;;6.00;2.10;;;;;;;15.71;69.59;101326.38;5259069;28;20053;-75
2022/06/06 08:16:13;;;;;;;3.50;2.20;;;;;;;15.66;69.18;101318.88;5238283;28;20022;-78
2022/06/06 08:18:48;;;;;;;2.92;1.40;;;;;;;15.68;68.80;101315.78;5251041;28;20117;-77
2022/06/06 08:21:35;;;;;;;2.50;1.70;;;;;;;15.69;69.00;101317.44;5267407;28;20033;-76
2022/06/06 08:24:10;;;;;;;2.83;1.40;;;;;;;15.71;69.88;101324.41;5241771;28;20029;-75
2022/06/06 08:26:45;;;;;;;2.85;2.28;;;;;;;15.73;69.88;101315.72;5276769;28;20408;-76
2022/06/06 08:29:17;;;;;;;4.03;1.77;;;;;;;15.71;69.82;101313.22;5268644;28;20017;-77
2022/06/06 08:31:49;;;;;;;3.13;1.88;;;;;;;15.73;69.19;101312.91;5272707;28;20017;-76
2022/06/06 08:34:21;;;;;;;1.90;1.73;;;;;;;15.80;69.37;101305.75;5272595;28;20108;-76
2022/06/06 08:37:06;;;;;;;1.75;1.38;;;;;;;15.88;69.28;101308.94;5274445;28;20021;-75
2022/06/06 08:40:03;;;;;;;4.28;2.17;;;;;;;15.93;68.35;101311.63;5248845;28;20499;-75
2022/06/06 08:43:10;;;;;;;1.98;1.38;;;;;;;15.95;68.03;101299.00;5243830;28;20018;-76
2022/06/06 08:45:59;;;;;;;2.60;1.98;;;;;;;15.91;67.24;101303.53;5257741;28;20094;-72
2022/06/06 08:48:52;;;;;;;4.30;1.50;;;;;;;15.95;68.08;101303.72;5258153;28;20034;-72
2022/06/06 08:52:01;;;;;;;4.00;2.75;;;;;;;15.98;67.50;101300.31;5265158;28;20432;-72
2022/06/06 08:55:12;;;;;;;5.68;3.13;;;;;;;15.99;67.86;101300.00;5208905;28;20109;-72
2022/06/06 08:58:02;;;;;;;3.38;2.13;;;;;;;16.04;69.18;101293.47;5243704;28;20087;-74
2022/06/06 09:01:18;;;;;;;2.80;2.00;;;;;;;16.02;67.89;101299.34;5257716;28;20085;-78
2022/06/06 09:04:14;;;;;;;2.57;2.20;;;;;;;16.07;67.92;101293.63;5261336;28;20033;-78
2022/06/06 09:07:07;;;;;;;3.57;2.20;;;;;;;16.27;68.32;101295.13;5257936;28;20025;-77
2022/06/06 09:09:47;;;;;;;4.72;2.03;;;;;;;16.27;67.40;101286.72;5257559;28;20211;-77
2022/06/06 09:12:40;;;;;;;4.32;2.33;;;;;;;16.26;69.00;101292.66;5241752;28;20136;-77
2022/06/06 09:15:38;;;;;;;3.08;1.77;;;;;;;16.32;69.15;101284.97;5238134;28;20033;-78
2022/06/06 09:18:39;;;;;;;2.95;2.33;;;;;;;16.38;68.27;101290.09;5230017;28;20100;-79
2022/06/06 09:21:55;;;;;;;1.60;1.50;;;;;;;16.34;66.41;101291.06;5244059;28;20113;-79
2022/06/06 09:24:45;;;;;;;6.40;1.73;;;;;;;16.40;66.69;101287.00;5213534;28;20056;-77
2022/06/06 09:27:31;;;;;;;2.05;1.52;;;;;;;16.36;66.78;101291.56;5243592;28;20104;-78
2022/06/06 09:30:03;;;;;;;5.05;2.13;;;;;;;16.24;65.88;101280.94;5242455;28;20049;-77
2022/06/06 09:32:40;;;;;;;2.75;1.50;;;;;;;16.27;66.68;101285.91;5242138;28;20056;-76
2022/06/06 09:35:48;;;;;;;3.58;2.03;;;;;;;16.39;67.14;101282.56;5243881;28;20028;-76
2022/06/06 09:38:45;;;;;;;4.28;1.80;;;;;;;16.65;66.83;101277.94;5243582;28;20038;-76
2022/06/06 09:41:40;;;;;;;1.35;1.17;;;;;;;16.77;65.06;101282.09;5243442;28;20032;-75
2022/06/06 09:44:30;;;;;;;3.05;1.13;;;;;;;16.90;63.55;101268.06;5243655;28;20052;-74
2022/06/06 09:47:10;;;;;;;1.42;1.25;;;;;;;17.05;62.39;101271.56;5242168;28;20389;-76
2022/06/06 09:49:56;;;;;;;4.28;1.40;;;;;;;17.06;59.73;101268.44;5223027;28;20033;-75
2022/06/06 09:52:55;;;;;;;2.67;1.40;;;;;;;17.14;61.28;101264.84;5226397;28;20496;-75
2022/06/06 09:59:02;;;;;;;3.33;1.60;;;;;;;17.50;59.69;101251.75;5243608;28;20057;-76
2022/06/06 10:02:11;;;;;;;1.92;1.20;;;;;;;17.62;59.58;101260.38;5242839;28;20029;-73
2022/06/06 10:05:04;;;;;;;4.28;1.35;;;;;;;17.52;59.40;101255.88;5236364;28;20029;-77
2022/06/06 10:08:00;;;;;;;3.78;1.45;;;;;;;17.41;60.97;101250.91;5236738;28;20057;-75
2022/06/06 10:10:56;;;;;;;5.05;1.63;;;;;;;17.35;61.79;101256.66;5244189;28;20025;-75
2022/06/06 10:13:49;;;;;;;2.90;1.63;;;;;;;17.21;60.50;101244.78;5244008;28;20064;-75
2022/06/06 10:16:23;;;;;;;4.25;1.48;;;;;;;17.31;60.58;101255.69;5242245;28;20036;-75
2022/06/06 10:19:23;;;;;;;5.75;2.72;;;;;;;17.24;61.50;101240.50;5222413;28;20030;-76
2022/06/06 10:21:54;;;;;;;2.03;1.52;;;;;;;17.28;60.22;101236.72;5227889;28;20033;-77
2022/06/06 10:24:57;;;;;;;2.92;1.90;;;;;;;17.26;59.55;101236.22;5242841;28;20095;-77
2022/06/06 10:27:49;;;;;;;5.97;1.60;;;;;;;17.28;59.87;101245.13;5242750;28;20072;-76
2022/06/06 10:30:49;;;;;;;2.63;2.28;;;;;;;17.34;59.54;101251.41;5242094;28;20030;-77
2022/06/06 10:33:35;;;;;;;2.47;1.50;;;;;;;17.47;59.93;101246.81;5241505;28;20464;-77
2022/06/06 10:36:14;;;;;;;2.00;1.40;;;;;;;17.66;59.88;101250.13;5242492;28;20028;-77
2022/06/06 10:39:04;;;;;;;5.97;4.32;;;;;;;17.66;59.75;101244.53;5238451;28;20451;-76
2022/06/06 10:42:03;;;;;;;2.67;1.58;;;;;;;17.63;61.45;101256.41;5243519;28;20029;-77
2022/06/06 10:45:02;;;;;;;4.80;2.60;;;;;;;17.54;62.08;101252.78;5241657;28;20025;-75
2022/06/06 10:47:58;;;;;;;2.40;1.58;;;;;;;17.46;60.82;101250.75;5235006;28;20038;-76
2022/06/06 10:54:13;;;;;;;2.08;1.30;;;;;;;17.66;60.65;101238.09;5239678;28;20419;-77
2022/06/06 10:57:21;;;;;;;3.42;1.27;;;;;;;17.73;60.77;101242.06;5226133;28;20026;-76
2022/06/06 11:00:13;;;;;;;3.08;1.73;;;;;;;17.98;59.93;101234.03;5221759;28;20432;-77
2022/06/06 11:03:12;;;;;;;3.17;1.45;;;;;;;17.96;59.65;101239.94;5242381;28;20022;-76
2022/06/06 11:06:08;;;;;;;4.63;2.92;;;;;;;18.10;57.99;101242.59;5251971;28;20045;-76
2022/06/06 11:09:25;;;;;;;3.60;2.92;;;;;;;18.45;58.44;101232.13;5242050;28;20444;-77
2022/06/06 11:12:26;;;;;;;3.47;1.50;;;;;;;18.45;55.53;101236.94;5224121;28;20116;-77
2022/06/06 11:15:05;;;;;;;5.45;1.40;;;;;;;18.40;55.75;101231.47;5236940;28;20503;-77
2022/06/06 11:18:09;;;;;;;2.33;1.25;;;;;;;18.34;55.11;101233.66;5238727;28;20488;-76
2022/06/06 11:20:49;;;;;;;4.72;1.40;;;;;;;18.46;54.40;101221.75;5245811;28;20035;-78
2022/06/06 11:23:35;;;;;;;1.90;1.15;;;;;;;18.43;54.61;101214.81;5242477;28;20025;-76
2022/06/06 11:26:28;;;;;;;2.60;1.40;;;;;;;18.61;55.35;101215.59;5240337;28;20067;-77
2022/06/06 11:29:20;;;;;;;4.22;1.23;;;;;;;18.70;55.28;101207.13;5240874;28;20076;-77
2022/06/06 11:32:22;;;;;;;1.60;1.02;;;;;;;18.67;53.23;101207.78;5220734;28;20029;-77
2022/06/06 11:35:24;;;;;;;4.70;1.40;;;;;;;18.64;53.34;101208.47;5235243;28;20033;-77
2022/06/06 11:38:32;;;;;;;1.80;1.25;;;;;;;18.71;54.37;101207.94;5242026;28;20053;-76
2022/06/06 11:41:34;;;;;;;2.17;1.20;;;;;;;18.72;55.01;101220.84;5241419;28;20159;-79
2022/06/06 11:44:37;;;;;;;2.28;1.80;;;;;;;18.63;54.17;101221.66;5241718;28;20543;-79
2022/06/06 11:47:20;;;;;;;3.40;1.52;;;;;;;18.59;54.49;101215.09;5230926;28;20052;-79
2022/06/06 11:50:23;;;;;;;1.67;1.10;;;;;;;18.51;53.83;101224.38;5241396;28;20087;-77
2022/06/06 11:53:26;;;;;;;1.70;1.15;;;;;;;18.47;54.01;101226.19;5241657;28;20022;-79
2022/06/06 11:56:39;;;;;;;3.72;1.30;;;;;;;18.32;54.85;101216.31;5241232;28;20412;-79
2022/06/06 11:59:38;;;;;;;5.03;1.33;;;;;;;18.28;55.49;101214.50;5244305;28;20084;-78
2022/06/06 12:02:25;;;;;;;4.38;1.67;;;;;;;18.32;55.35;101216.31;5240787;28;20104;-76
2022/06/06 12:05:29;;;;;;;5.32;2.00;;;;;;;18.24;55.38;101212.34;5224490;28;20030;-74
2022/06/06 12:08:23;;;;;;;13.23;9.00;;;;;;;18.22;55.88;101208.22;5220106;28;20369;-73
2022/06/06 12:11:04;;;;;;;2.42;1.35;;;;;;;18.12;56.11;101211.38;5220418;28;20022;-75
2022/06/06 12:13:55;;;;;;;4.90;1.58;;;;;;;18.13;56.61;101222.28;5220583;28;20104;-74
2022/06/06 12:16:48;;;;;;;3.00;1.38;;;;;;;18.18;55.80;101213.69;5238209;28;20539;-74
2022/06/06 12:19:30;;;;;;;3.78;1.40;;;;;;;18.32;56.46;101221.09;5239542;28;20060;-77
2022/06/06 12:22:13;;;;;;;5.25;1.80;;;;;;;18.33;55.50;101223.59;5238435;28;20041;-76
2022/06/06 12:25:09;;;;;;;2.72;1.90;;;;;;;18.35;55.12;101209.19;5254955;28;20357;-77
2022/06/06 12:27:47;;;;;;;3.20;1.63;;;;;;;18.31;54.54;101213.84;5239189;28;20044;-78
2022/06/06 12:30:34;;;;;;;3.60;1.35;;;;;;;18.17;54.94;101208.41;5240166;28;20163;-77
2022/06/06 12:33:27;;;;;;;5.50;1.70;;;;;;;18.14;55.60;101207.09;5241832;28;20412;-76
2022/06/06 12:36:14;;;;;;;2.08;1.58;;;;;;;18.07;55.94;101220.78;5240200;28;20037;-70
2022/06/06 12:39:04;;;;;;;5.35;1.52;;;;;;;18.05;56.59;101211.91;5225608;28;20038;-70
2022/06/06 12:41:55;;;;;;;4.57;2.20;;;;;;;18.03;56.73;101219.81;5238978;28;20032;-71
2022/06/06 12:44:47;;;;;;;18.38;16.52;;;;;;;18.02;56.70;101218.16;5241503;28;20176;-71
2022/06/06 12:47:53;;;;;;;3.55;1.20;;;;;;;17.96;56.61;101227.91;5244633;28;20484;-76
2022/06/06 12:50:43;;;;;;;3.28;1.40;;;;;;;17.81;56.76;101218.00;5244424;28;20100;-76
2022/06/06 12:53:36;;;;;;;4.00;1.70;;;;;;;17.80;57.72;101217.19;5244739;28;20131;-75
2022/06/06 12:56:37;;;;;;;3.85;1.40;;;;;;;17.81;58.03;101207.59;5234110;28;20037;-76
2022/06/06 12:59:23;;;;;;;2.47;2.25;;;;;;;17.74;57.78;101218.47;5234868;28;20400;-75
2022/06/06 13:02:11;;;;;;;2.95;1.50;;;;;;;17.70;58.79;101217.47;5244174;28;20121;-77
2022/06/06 13:05:22;;;;;;;1.50;1.20;;;;;;;17.70;59.23;101233.50;5243362;28;20033;-72
2022/06/06 13:07:54;;;;;;;6.20;1.67;;;;;;;17.48;59.93;101237.25;5247818;28;20049;-77
2022/06/06 13:11:10;;;;;;;5.20;1.20;;;;;;;17.37;60.02;101237.53;5243611;28;20377;-76
2022/06/06 13:14:10;;;;;;;4.18;1.42;;;;;;;17.14;61.40;101238.81;5235798;28;20392;-77
2022/06/06 13:17:06;;;;;;;2.83;1.20;;;;;;;17.05;62.09;101246.34;5234398;28;20076;-77
2022/06/06 13:20:04;;;;;;;6.15;1.30;;;;;;;17.11;63.76;101250.66;5237031;28;20064;-77
2022/06/06 13:23:12;;;;;;;4.50;1.40;;;;;;;17.11;64.49;101233.84;5244383;28;20041;-77
2022/06/06 13:25:57;;;;;;;5.80;2.13;;;;;;;17.21;63.99;101233.56;5242357;28;20029;-78
2022/06/06 13:28:45;;;;;;;2.58;1.45;;;;;;;17.44;62.61;101237.06;5252853;28;20022;-78
2022/06/06 13:31:34;;;;;;;2.40;1.30;;;;;;;17.58;61.68;101220.91;5243879;28;20025;-76
2022/06/06 13:34:44;;;;;;;7.25;2.22;;;;;;;17.69;61.12;101226.22;5247361;28;20028;-76
2022/06/06 13:37:45;;;;;;;3.75;1.25;;;;;;;17.67;61.64;101223.75;5262305;28;20136;-77
2022/06/06 13:40:32;;;;;;;8.90;3.03;;;;;;;17.62;61.47;101221.09;5247811;28;20120;-77
2022/06/06 13:43:23;;;;;;;3.83;1.00;;;;;;;17.67;62.68;101225.72;5247893;28;20029;-78
2022/06/06 13:46:18;;;;;;;2.40;1.40;;;;;;;17.67;62.48;101222.94;5242425;28;20021;-77
2022/06/06 13:49:19;;;;;;;3.13;1.30;;;;;;;17.54;62.72;101217.13;5243335;28;20448;-78
2022/06/06 13:52:17;;;;;;;3.63;1.52;;;;;;;17.53;63.85;101242.69;5241969;28;20384;-78
2022/06/06 13:54:48;;;;;;;2.60;1.40;;;;;;;17.34;68.68;101241.00;5245538;28;20057;-77
2022/06/06 13:57:27;;;;;;;2.33;1.73;;;;;;;17.23;72.46;101241.63;5255741;28;20073;-77
2022/06/06 14:00:10;;;;;;;2.95;1.60;;;;;;;17.08;73.11;101240.94;5234698;28;20056;-77
2022/06/06 14:02:41;;;;;;;4.20;1.60;;;;;;;16.82;71.56;101237.19;5242511;28;20393;-74
2022/06/06 14:05:18;;;;;;;3.55;1.33;;;;;;;16.67;72.40;101235.63;5231600;28;20032;-74
2022/06/06 14:07:56;;;;;;;2.00;1.50;;;;;;;16.63;71.41;101238.22;5241883;28;20065;-77
2022/06/06 14:10:53;;;;;;;4.60;2.22;;;;;;;16.76;71.88;101238.44;5243115;28;20377;-77
2022/06/06 14:13:53;;;;;;;4.20;1.48;;;;;;;16.76;68.94;101233.66;5233372;28;20500;-76
2022/06/06 14:16:44;;;;;;;2.72;1.52;;;;;;;16.77;69.50;101237.28;5241341;28;20041;-76
2022/06/06 14:19:19;;;;;;;4.57;1.58;;;;;;;16.79;68.35;101233.06;5239806;28;20038;-78
2022/06/06 14:21:57;;;;;;;6.90;1.90;;;;;;;16.80;67.47;101240.31;5225740;28;20029;-77
2022/06/06 14:24:35;;;;;;;2.40;1.75;;;;;;;16.88;67.52;101233.09;5243070;28;20083;-78
2022/06/06 14:27:20;;;;;;;1.60;1.42;;;;;;;17.03;67.50;101237.47;5242350;28;20112;-75
2022/06/06 14:29:51;;;;;;;3.05;1.83;;;;;;;17.04;66.20;101239.09;5242298;28;20040;-75
2022/06/06 14:32:32;;;;;;;1.60;1.33;;;;;;;17.03;65.90;101248.66;5252576;28;20029;-77
2022/06/06 14:35:16;;;;;;;4.07;1.52;;;;;;;17.11;66.28;101253.47;5242040;28;20060;-78
2022/06/06 14:37:48;;;;;;;3.97;2.22;;;;;;;17.05;66.44;101249.16;5236262;28;20116;-74
2022/06/06 14:40:37;;;;;;;2.67;1.65;;;;;;;17.00;66.94;101257.69;5241591;28;20053;-74
2022/06/06 14:43:08;;;;;;;2.88;1.67;;;;;;;16.89;67.65;101263.59;5241577;28;20043;-74
2022/06/06 14:45:45;;;;;;;5.18;1.95;;;;;;;16.80;68.24;101254.34;5242273;28;20029;-75
2022/06/06 14:48:19;;;;;;;2.58;1.90;;;;;;;16.76;69.19;101255.25;5244376;28;20018;-77
2022/06/06 14:51:00;;;;;;;4.20;1.50;;;;;;;16.75;70.43;101254.44;5241239;28;20112;-76
2022/06/06 14:53:54;;;;;;;4.55;2.28;;;;;;;16.81;69.76;101253.16;5236372;28;20057;-76
2022/06/06 14:56:30;;;;;;;2.47;1.70;;;;;;;16.77;69.28;101251.28;5239381;28;20021;-76
2022/06/06 14:59:07;;;;;;;5.05;2.25;;;;;;;16.75;68.56;101254.44;5242021;28;20366;-77
2022/06/06 15:01:39;;;;;;;2.08;1.50;;;;;;;16.82;68.11;101248.38;5241668;28;20126;-77
2022/06/06 15:04:16;;;;;;;2.00;1.40;;;;;;;16.83;67.89;101250.88;5241410;28;20075;-77
2022/06/06 15:06:57;;;;;;;6.15;1.50;;;;;;;16.86;67.51;101255.00;5261582;28;20029;-77
2022/06/06 15:09:47;;;;;;;3.05;1.75;;;;;;;16.87;67.95;101254.69;5263055;28;20047;-77
2022/06/06 15:12:25;;;;;;;3.20;1.40;;;;;;;16.95;66.58;101261.50;5233397;28;20029;-77
2022/06/06 15:14:59;;;;;;;5.07;1.52;;;;;;;16.98;66.70;101268.44;5241558;28;20507;-75
2022/06/06 15:17:34;;;;;;;3.80;1.60;;;;;;;16.92;67.46;101264.91;5231206;28;20401;-77
2022/06/06 15:20:28;;;;;;;3.65;2.00;;;;;;;16.91;68.68;101266.88;5239968;28;20056;-76
2022/06/06 15:23:15;;;;;;;3.50;1.70;;;;;;;16.88;69.83;101283.53;5240736;28;20021;-76
2022/06/06 15:26:00;;;;;;;2.42;2.15;;;;;;;16.71;71.69;101278.63;5241201;28;20099;-76
2022/06/06 15:28:41;;;;;;;4.53;2.58;;;;;;;16.61;72.78;101287.28;5240564;28;20029;-76
2022/06/06 15:31:26;;;;;;;5.15;3.55;;;;;;;16.43;73.51;101303.16;5240776;28;20021;-76
2022/06/06 15:34:12;;;;;;;6.15;2.75;;;;;;;16.33;73.32;101297.78;5241510;28;20492;-75
2022/06/06 15:37:02;;;;;;;3.30;2.67;;;;;;;16.43;73.77;101303.16;5241765;28;20477;-76
2022/06/06 15:39:49;;;;;;;2.97;1.88;;;;;;;16.32;72.06;101299.78;5241595;28;20075;-77
2022/06/06 15:42:45;;;;;;;3.72;1.60;;;;;;;16.34;71.15;101294.69;5241742;28;20026;-77
2022/06/06 15:45:35;;;;;;;3.00;1.63;;;;;;;16.25;71.71;101297.41;5228714;28;20428;-77
2022/06/06 15:48:25;;;;;;;2.88;1.83;;;;;;;16.26;72.95;101295.47;5220919;28;20038;-80
2022/06/06 15:51:34;;;;;;;2.22;1.70;;;;;;;16.30;72.66;101293.66;5221154;28;20025;-73
2022/06/06 15:54:31;;;;;;;4.90;2.05;;;;;;;16.35;72.19;101287.94;5227546;28;20435;-76
2022/06/06 15:57:42;;;;;;;9.38;4.60;;;;;;;16.42;72.52;101302.31;5235927;28;20034;-76
2022/06/06 16:00:33;;;;;;;4.43;2.55;;;;;;;16.36;72.39;101286.81;5221554;28;20477;-76
2022/06/06 16:03:35;;;;;;;2.22;2.00;;;;;;;16.37;72.63;101282.84;5237065;28;20120;-76
2022/06/06 16:06:09;;;;;;;3.60;2.17;;;;;;;16.37;72.52;101280.06;5222774;28;20021;-77
2022/06/06 16:09:02;;;;;;;2.15;1.95;;;;;;;16.29;72.73;101272.44;5240262;28;20040;-76
2022/06/06 16:11:59;;;;;;;3.47;1.80;;;;;;;16.34;72.52;101288.28;5240936;28;20112;-75
2022/06/06 16:14:46;;;;;;;2.35;1.63;;;;;;;16.37;72.37;101276.44;5238329;28;20040;-76
2022/06/06 16:17:30;;;;;;;3.63;1.80;;;;;;;16.39;71.77;101274.16;5232527;28;20112;-76
2022/06/06 16:20:14;;;;;;;2.70;1.73;;;;;;;16.31;71.86;101284.13;5237927;28;20484;-75
2022/06/06 16:22:52;;;;;;;2.65;1.88;;;;;;;16.12;71.46;101275.91;5244117;28;20038;-75
2022/06/06 16:25:25;;;;;;;4.13;1.90;;;;;;;16.16;71.77;101287.31;5224855;28;20035;-76
2022/06/06 16:28:17;;;;;;;3.17;2.03;;;;;;;16.20;71.77;101271.53;5232864;28;20063;-76
2022/06/06 16:30:55;;;;;;;4.05;1.92;;;;;;;16.11;71.70;101279.03;5257169;28;20087;-76
2022/06/06 16:33:31;;;;;;;7.22;2.85;;;;;;;15.97;71.75;101271.50;5265683;28;20098;-75
2022/06/06 16:36:08;;;;;;;3.53;1.85;;;;;;;16.11;71.32;101281.84;5245620;28;20030;-76
2022/06/06 16:38:45;;;;;;;5.10;2.35;;;;;;;16.18;71.60;101273.81;5224086;28;20041;-75
2022/06/06 16:47:54;;;;;;;3.47;2.28;;;;;;;16.15;71.36;101274.44;5242169;28;20028;-76
2022/06/06 16:47:56;;;;;;;2.92;2.17;;;;;;;16.22;71.41;101281.25;5257770;28;20112;-75
2022/06/06 16:50:39;;;;;;;3.67;2.67;;;;;;;16.19;71.18;101281.06;5263902;28;20447;-76
2022/06/06 16:53:29;;;;;;;3.65;2.60;;;;;;;16.18;71.54;101290.59;5243358;28;20197;-76
2022/06/06 16:56:26;;;;;;;4.25;2.30;;;;;;;16.20;71.38;101288.31;5238798;28;20033;-76
2022/06/06 16:59:38;;;;;;;4.07;2.90;;;;;;;16.26;71.78;101287.06;5243148;28;20076;-76
2022/06/06 17:02:17;;;;;;;3.38;3.08;;;;;;;16.13;71.53;101283.19;5249045;28;20032;-77
2022/06/06 17:05:18;;;;;;;4.47;3.63;;;;;;;16.08;72.48;101298.09;5252371;28;20026;-77
2022/06/06 17:08:07;;;;;;;3.25;2.72;;;;;;;15.70;76.18;101311.56;5264966;28;20445;-77
2022/06/06 17:10:48;;;;;;;4.55;2.80;;;;;;;15.30;81.17;101321.59;5234957;28;20041;-77
2022/06/06 17:13:33;;;;;;;5.15;2.88;;;;;;;14.81;85.88;101318.34;5224048;28;20042;-77
2022/06/06 17:16:30;;;;;;;2.20;2.00;;;;;;;14.60;88.21;101331.81;5223826;28;20030;-77
2022/06/06 17:19:25;;;;;;;1.70;1.58;;;;;;;14.57;88.87;101332.41;5247237;28;20025;-76
2022/06/06 17:22:01;;;;;;;1.60;1.50;;;;;;;14.23;90.25;101333.47;5250769;28;20100;-76
2022/06/06 17:24:46;;;;;;;1.98;1.60;;;;;;;14.54;89.92;101331.06;5250019;28;20060;-77
2022/06/06 17:27:31;;;;;;;1.83;1.30;;;;;;;14.52;89.19;101332.47;5242688;28;20376;-77
